sensor_id;sensor_type;location;lat;lon;timestamp;P1;durP1;ratioP1;P2;durP2;ratioP2
14060;SDS011;7105;43.616;1.434;2023-05-07T00:00:00;6.78;;;4.88;;
14060;SDS011;7105;43.616;1.434;2023-05-07T00:02:26;6.88;;;4.90;;
14060;SDS011;7105;43.616;1.434;2023-05-07T00:04:52;8.40;;;5.10;;
14060;SDS011;7105;43.616;1.434;2023-05-07T00:07:18;8.23;;;4.80;;
14060;SDS011;7105;43.616;1.434;2023-05-07T00:09:43;9.20;;;4.95;;
14060;SDS011;7105;43.616;1.434;2023-05-07T00:12:09;6.18;;;4.90;;
14060;SDS011;7105;43.616;1.434;2023-05-07T00:14:35;8.75;;;4.80;;
14060;SDS011;7105;43.616;1.434;2023-05-07T00:17:00;6.60;;;4.60;;
14060;SDS011;7105;43.616;1.434;2023-05-07T00:19:26;6.75;;;4.97;;
14060;SDS011;7105;43.616;1.434;2023-05-07T00:21:52;10.85;;;5.15;;
14060;SDS011;7105;43.616;1.434;2023-05-07T00:24:19;9.30;;;5.43;;
14060;SDS011;7105;43.616;1.434;2023-05-07T00:26:44;9.75;;;5.40;;
14060;SDS011;7105;43.616;1.434;2023-05-07T00:29:10;7.22;;;5.07;;
14060;SDS011;7105;43.616;1.434;2023-05-07T00:31:38;8.82;;;4.93;;
14060;SDS011;7105;43.616;1.434;2023-05-07T00:34:04;6.85;;;4.30;;
14060;SDS011;7105;43.616;1.434;2023-05-07T00:36:29;10.95;;;5.22;;
14060;SDS011;7105;43.616;1.434;2023-05-07T00:38:56;7.88;;;4.75;;
14060;SDS011;7105;43.616;1.434;2023-05-07T00:41:24;9.73;;;4.35;;
14060;SDS011;7105;43.616;1.434;2023-05-07T00:43:49;8.82;;;4.85;;
14060;SDS011;7105;43.616;1.434;2023-05-07T00:46:16;9.70;;;5.47;;
14060;SDS011;7105;43.616;1.434;2023-05-07T00:48:42;8.00;;;4.45;;
14060;SDS011;7105;43.616;1.434;2023-05-07T00:51:09;7.85;;;4.60;;
14060;SDS011;7105;43.616;1.434;2023-05-07T00:53:36;10.30;;;5.28;;
14060;SDS011;7105;43.616;1.434;2023-05-07T00:56:02;7.60;;;4.50;;
14060;SDS011;7105;43.616;1.434;2023-05-07T00:58:28;8.98;;;4.40;;
14060;SDS011;7105;43.616;1.434;2023-05-07T01:00:55;9.23;;;5.32;;
14060;SDS011;7105;43.616;1.434;2023-05-07T01:03:21;8.02;;;4.72;;
14060;SDS011;7105;43.616;1.434;2023-05-07T01:05:46;8.07;;;4.60;;
14060;SDS011;7105;43.616;1.434;2023-05-07T01:08:13;7.40;;;4.22;;
14060;SDS011;7105;43.616;1.434;2023-05-07T01:10:40;7.03;;;5.53;;
14060;SDS011;7105;43.616;1.434;2023-05-07T01:13:08;7.30;;;4.40;;
14060;SDS011;7105;43.616;1.434;2023-05-07T01:15:35;6.07;;;4.15;;
14060;SDS011;7105;43.616;1.434;2023-05-07T01:18:01;8.15;;;4.47;;
14060;SDS011;7105;43.616;1.434;2023-05-07T01:20:28;8.07;;;4.10;;
14060;SDS011;7105;43.616;1.434;2023-05-07T01:22:54;10.47;;;4.33;;
14060;SDS011;7105;43.616;1.434;2023-05-07T01:25:21;7.85;;;3.85;;
14060;SDS011;7105;43.616;1.434;2023-05-07T01:27:47;6.97;;;3.80;;
14060;SDS011;7105;43.616;1.434;2023-05-07T01:30:13;9.57;;;3.85;;
14060;SDS011;7105;43.616;1.434;2023-05-07T01:32:48;9.02;;;3.85;;
14060;SDS011;7105;43.616;1.434;2023-05-07T01:35:17;7.20;;;3.70;;
14060;SDS011;7105;43.616;1.434;2023-05-07T01:37:45;7.38;;;3.75;;
14060;SDS011;7105;43.616;1.434;2023-05-07T01:40:12;9.82;;;3.65;;
14060;SDS011;7105;43.616;1.434;2023-05-07T01:42:39;10.40;;;3.33;;
14060;SDS011;7105;43.616;1.434;2023-05-07T01:45:06;7.97;;;3.42;;
14060;SDS011;7105;43.616;1.434;2023-05-07T01:47:32;11.30;;;4.07;;
14060;SDS011;7105;43.616;1.434;2023-05-07T01:49:58;9.82;;;3.72;;
14060;SDS011;7105;43.616;1.434;2023-05-07T01:52:24;9.37;;;3.50;;
14060;SDS011;7105;43.616;1.434;2023-05-07T01:54:50;7.17;;;3.50;;
14060;SDS011;7105;43.616;1.434;2023-05-07T01:57:16;9.27;;;3.33;;
14060;SDS011;7105;43.616;1.434;2023-05-07T01:59:41;8.38;;;3.45;;
14060;SDS011;7105;43.616;1.434;2023-05-07T02:02:07;8.60;;;3.50;;
14060;SDS011;7105;43.616;1.434;2023-05-07T02:04:33;9.52;;;3.70;;
14060;SDS011;7105;43.616;1.434;2023-05-07T02:06:58;7.37;;;3.60;;
14060;SDS011;7105;43.616;1.434;2023-05-07T02:09:24;9.17;;;3.50;;
14060;SDS011;7105;43.616;1.434;2023-05-07T02:11:50;9.80;;;3.60;;
14060;SDS011;7105;43.616;1.434;2023-05-07T02:14:15;8.97;;;3.67;;
14060;SDS011;7105;43.616;1.434;2023-05-07T02:16:41;13.70;;;4.00;;
14060;SDS011;7105;43.616;1.434;2023-05-07T02:19:07;7.63;;;3.10;;
14060;SDS011;7105;43.616;1.434;2023-05-07T02:21:32;8.30;;;3.40;;
14060;SDS011;7105;43.616;1.434;2023-05-07T02:23:58;9.77;;;3.67;;
14060;SDS011;7105;43.616;1.434;2023-05-07T02:26:24;9.47;;;3.20;;
14060;SDS011;7105;43.616;1.434;2023-05-07T02:28:50;8.77;;;3.47;;
14060;SDS011;7105;43.616;1.434;2023-05-07T02:31:16;9.97;;;3.60;;
14060;SDS011;7105;43.616;1.434;2023-05-07T02:33:42;6.63;;;3.20;;
14060;SDS011;7105;43.616;1.434;2023-05-07T02:36:08;10.27;;;3.70;;
14060;SDS011;7105;43.616;1.434;2023-05-07T02:38:35;6.87;;;3.30;;
14060;SDS011;7105;43.616;1.434;2023-05-07T02:41:00;11.70;;;3.53;;
14060;SDS011;7105;43.616;1.434;2023-05-07T02:43:26;9.13;;;4.10;;
14060;SDS011;7105;43.616;1.434;2023-05-07T02:46:05;7.67;;;3.17;;
14060;SDS011;7105;43.616;1.434;2023-05-07T02:48:32;9.03;;;3.73;;
14060;SDS011;7105;43.616;1.434;2023-05-07T02:50:58;10.57;;;3.67;;
14060;SDS011;7105;43.616;1.434;2023-05-07T02:53:24;8.33;;;3.43;;
14060;SDS011;7105;43.616;1.434;2023-05-07T02:55:54;9.77;;;3.63;;
14060;SDS011;7105;43.616;1.434;2023-05-07T02:58:21;11.03;;;3.43;;
14060;SDS011;7105;43.616;1.434;2023-05-07T03:00:47;9.17;;;4.03;;
14060;SDS011;7105;43.616;1.434;2023-05-07T03:03:13;12.57;;;3.80;;
14060;SDS011;7105;43.616;1.434;2023-05-07T03:05:39;8.33;;;3.63;;
14060;SDS011;7105;43.616;1.434;2023-05-07T03:08:04;9.93;;;3.57;;
14060;SDS011;7105;43.616;1.434;2023-05-07T03:10:30;10.40;;;3.90;;
14060;SDS011;7105;43.616;1.434;2023-05-07T03:12:56;11.03;;;3.73;;
14060;SDS011;7105;43.616;1.434;2023-05-07T03:15:22;9.87;;;3.70;;
14060;SDS011;7105;43.616;1.434;2023-05-07T03:17:47;9.40;;;3.40;;
14060;SDS011;7105;43.616;1.434;2023-05-07T03:20:13;7.90;;;3.40;;
14060;SDS011;7105;43.616;1.434;2023-05-07T03:22:39;8.03;;;3.20;;
14060;SDS011;7105;43.616;1.434;2023-05-07T03:25:08;11.07;;;3.47;;
14060;SDS011;7105;43.616;1.434;2023-05-07T03:27:35;7.10;;;3.40;;
14060;SDS011;7105;43.616;1.434;2023-05-07T03:30:00;9.93;;;3.80;;
14060;SDS011;7105;43.616;1.434;2023-05-07T03:32:26;10.90;;;3.33;;
14060;SDS011;7105;43.616;1.434;2023-05-07T03:34:52;12.40;;;4.10;;
14060;SDS011;7105;43.616;1.434;2023-05-07T03:37:18;11.50;;;3.97;;
14060;SDS011;7105;43.616;1.434;2023-05-07T03:39:44;7.80;;;3.30;;
14060;SDS011;7105;43.616;1.434;2023-05-07T03:42:09;9.40;;;3.33;;
14060;SDS011;7105;43.616;1.434;2023-05-07T03:44:38;9.30;;;3.43;;
14060;SDS011;7105;43.616;1.434;2023-05-07T03:47:04;12.83;;;3.47;;
14060;SDS011;7105;43.616;1.434;2023-05-07T03:49:30;10.07;;;3.70;;
14060;SDS011;7105;43.616;1.434;2023-05-07T03:51:55;9.00;;;3.60;;
14060;SDS011;7105;43.616;1.434;2023-05-07T03:54:21;10.00;;;3.50;;
14060;SDS011;7105;43.616;1.434;2023-05-07T03:56:47;10.23;;;3.93;;
14060;SDS011;7105;43.616;1.434;2023-05-07T03:59:13;14.63;;;4.17;;
14060;SDS011;7105;43.616;1.434;2023-05-07T04:01:38;9.03;;;3.70;;
14060;SDS011;7105;43.616;1.434;2023-05-07T04:04:05;11.27;;;3.87;;
14060;SDS011;7105;43.616;1.434;2023-05-07T04:06:31;9.90;;;3.80;;
14060;SDS011;7105;43.616;1.434;2023-05-07T04:08:56;16.67;;;3.97;;
14060;SDS011;7105;43.616;1.434;2023-05-07T04:11:22;9.33;;;3.47;;
14060;SDS011;7105;43.616;1.434;2023-05-07T04:13:48;12.20;;;3.63;;
14060;SDS011;7105;43.616;1.434;2023-05-07T04:16:13;9.97;;;3.73;;
14060;SDS011;7105;43.616;1.434;2023-05-07T04:18:39;12.07;;;3.50;;
14060;SDS011;7105;43.616;1.434;2023-05-07T04:21:14;9.67;;;3.73;;
14060;SDS011;7105;43.616;1.434;2023-05-07T04:23:45;10.57;;;3.60;;
14060;SDS011;7105;43.616;1.434;2023-05-07T04:26:14;9.33;;;3.67;;
14060;SDS011;7105;43.616;1.434;2023-05-07T04:28:43;10.67;;;3.67;;
14060;SDS011;7105;43.616;1.434;2023-05-07T04:31:09;7.03;;;3.23;;
14060;SDS011;7105;43.616;1.434;2023-05-07T04:33:35;9.00;;;3.40;;
14060;SDS011;7105;43.616;1.434;2023-05-07T04:36:01;11.00;;;3.90;;
14060;SDS011;7105;43.616;1.434;2023-05-07T04:38:32;9.87;;;3.37;;
14060;SDS011;7105;43.616;1.434;2023-05-07T04:41:04;11.20;;;3.50;;
14060;SDS011;7105;43.616;1.434;2023-05-07T04:43:31;8.33;;;3.50;;
14060;SDS011;7105;43.616;1.434;2023-05-07T04:45:56;10.93;;;3.63;;
14060;SDS011;7105;43.616;1.434;2023-05-07T04:48:22;7.43;;;3.73;;
14060;SDS011;7105;43.616;1.434;2023-05-07T04:50:48;8.87;;;3.20;;
14060;SDS011;7105;43.616;1.434;2023-05-07T04:53:17;10.93;;;3.37;;
14060;SDS011;7105;43.616;1.434;2023-05-07T04:55:43;11.17;;;3.47;;
14060;SDS011;7105;43.616;1.434;2023-05-07T04:58:10;10.07;;;3.43;;
14060;SDS011;7105;43.616;1.434;2023-05-07T05:00:38;11.30;;;3.40;;
14060;SDS011;7105;43.616;1.434;2023-05-07T05:03:04;7.80;;;3.23;;
14060;SDS011;7105;43.616;1.434;2023-05-07T05:05:33;6.13;;;2.87;;
14060;SDS011;7105;43.616;1.434;2023-05-07T05:07:59;8.07;;;3.57;;
14060;SDS011;7105;43.616;1.434;2023-05-07T05:10:24;9.20;;;3.20;;
14060;SDS011;7105;43.616;1.434;2023-05-07T05:12:50;6.33;;;2.90;;
14060;SDS011;7105;43.616;1.434;2023-05-07T05:15:17;8.60;;;3.40;;
14060;SDS011;7105;43.616;1.434;2023-05-07T05:17:43;11.07;;;3.30;;
14060;SDS011;7105;43.616;1.434;2023-05-07T05:20:09;9.00;;;3.10;;
14060;SDS011;7105;43.616;1.434;2023-05-07T05:22:36;7.50;;;3.73;;
14060;SDS011;7105;43.616;1.434;2023-05-07T05:25:02;11.73;;;3.47;;
14060;SDS011;7105;43.616;1.434;2023-05-07T05:27:28;16.03;;;3.60;;
14060;SDS011;7105;43.616;1.434;2023-05-07T05:29:54;10.23;;;3.90;;
14060;SDS011;7105;43.616;1.434;2023-05-07T05:32:19;10.27;;;4.10;;
14060;SDS011;7105;43.616;1.434;2023-05-07T05:34:45;10.07;;;3.80;;
14060;SDS011;7105;43.616;1.434;2023-05-07T05:37:13;10.37;;;3.53;;
14060;SDS011;7105;43.616;1.434;2023-05-07T05:39:39;13.17;;;3.90;;
14060;SDS011;7105;43.616;1.434;2023-05-07T05:42:06;12.70;;;4.10;;
14060;SDS011;7105;43.616;1.434;2023-05-07T05:44:32;10.57;;;4.30;;
14060;SDS011;7105;43.616;1.434;2023-05-07T05:46:57;7.93;;;3.83;;
14060;SDS011;7105;43.616;1.434;2023-05-07T05:49:24;9.83;;;3.60;;
14060;SDS011;7105;43.616;1.434;2023-05-07T05:51:50;10.67;;;3.50;;
14060;SDS011;7105;43.616;1.434;2023-05-07T05:54:16;10.63;;;3.77;;
14060;SDS011;7105;43.616;1.434;2023-05-07T05:56:41;10.20;;;3.70;;
14060;SDS011;7105;43.616;1.434;2023-05-07T05:59:07;10.77;;;3.83;;
14060;SDS011;7105;43.616;1.434;2023-05-07T06:01:33;10.63;;;3.50;;
14060;SDS011;7105;43.616;1.434;2023-05-07T06:03:59;8.73;;;3.27;;
14060;SDS011;7105;43.616;1.434;2023-05-07T06:06:24;8.63;;;3.30;;
14060;SDS011;7105;43.616;1.434;2023-05-07T06:08:50;8.40;;;3.43;;
14060;SDS011;7105;43.616;1.434;2023-05-07T06:11:16;10.63;;;3.93;;
14060;SDS011;7105;43.616;1.434;2023-05-07T06:13:42;11.13;;;3.53;;
14060;SDS011;7105;43.616;1.434;2023-05-07T06:16:08;10.43;;;3.50;;
14060;SDS011;7105;43.616;1.434;2023-05-07T06:18:33;8.83;;;3.20;;
14060;SDS011;7105;43.616;1.434;2023-05-07T06:21:01;8.87;;;3.43;;
14060;SDS011;7105;43.616;1.434;2023-05-07T06:23:27;9.90;;;3.90;;
14060;SDS011;7105;43.616;1.434;2023-05-07T06:25:52;10.10;;;3.77;;
14060;SDS011;7105;43.616;1.434;2023-05-07T06:28:18;10.63;;;3.83;;
14060;SDS011;7105;43.616;1.434;2023-05-07T06:30:44;9.10;;;3.30;;
14060;SDS011;7105;43.616;1.434;2023-05-07T06:33:10;10.97;;;3.40;;
14060;SDS011;7105;43.616;1.434;2023-05-07T06:35:38;10.20;;;3.80;;
14060;SDS011;7105;43.616;1.434;2023-05-07T06:38:04;9.97;;;3.67;;
14060;SDS011;7105;43.616;1.434;2023-05-07T06:40:30;6.97;;;3.10;;
14060;SDS011;7105;43.616;1.434;2023-05-07T06:42:55;9.00;;;3.33;;
14060;SDS011;7105;43.616;1.434;2023-05-07T06:45:21;9.53;;;3.70;;
14060;SDS011;7105;43.616;1.434;2023-05-07T06:47:47;10.63;;;3.57;;
14060;SDS011;7105;43.616;1.434;2023-05-07T06:50:13;9.83;;;4.07;;
14060;SDS011;7105;43.616;1.434;2023-05-07T06:52:41;9.90;;;3.60;;
14060;SDS011;7105;43.616;1.434;2023-05-07T06:55:06;9.97;;;3.90;;
14060;SDS011;7105;43.616;1.434;2023-05-07T06:57:32;8.20;;;3.83;;
14060;SDS011;7105;43.616;1.434;2023-05-07T06:59:58;11.10;;;3.30;;
14060;SDS011;7105;43.616;1.434;2023-05-07T07:02:24;14.30;;;4.13;;
14060;SDS011;7105;43.616;1.434;2023-05-07T07:04:49;10.50;;;3.50;;
14060;SDS011;7105;43.616;1.434;2023-05-07T07:07:15;12.30;;;3.80;;
14060;SDS011;7105;43.616;1.434;2023-05-07T07:09:41;10.63;;;3.53;;
14060;SDS011;7105;43.616;1.434;2023-05-07T07:12:06;9.97;;;3.83;;
14060;SDS011;7105;43.616;1.434;2023-05-07T07:14:32;8.37;;;3.63;;
14060;SDS011;7105;43.616;1.434;2023-05-07T07:16:57;9.80;;;3.60;;
14060;SDS011;7105;43.616;1.434;2023-05-07T07:19:23;10.90;;;3.97;;
14060;SDS011;7105;43.616;1.434;2023-05-07T07:21:49;8.10;;;3.50;;
14060;SDS011;7105;43.616;1.434;2023-05-07T07:24:14;9.73;;;3.70;;
14060;SDS011;7105;43.616;1.434;2023-05-07T07:26:44;9.57;;;3.50;;
14060;SDS011;7105;43.616;1.434;2023-05-07T07:29:10;12.00;;;4.10;;
14060;SDS011;7105;43.616;1.434;2023-05-07T07:31:35;11.43;;;4.50;;
14060;SDS011;7105;43.616;1.434;2023-05-07T07:34:01;11.23;;;3.60;;
14060;SDS011;7105;43.616;1.434;2023-05-07T07:36:27;12.80;;;3.90;;
14060;SDS011;7105;43.616;1.434;2023-05-07T07:38:53;10.25;;;3.63;;
14060;SDS011;7105;43.616;1.434;2023-05-07T07:41:19;9.43;;;3.50;;
14060;SDS011;7105;43.616;1.434;2023-05-07T07:43:45;11.43;;;3.63;;
14060;SDS011;7105;43.616;1.434;2023-05-07T07:46:11;8.57;;;3.33;;
14060;SDS011;7105;43.616;1.434;2023-05-07T07:48:37;11.43;;;3.70;;
14060;SDS011;7105;43.616;1.434;2023-05-07T07:51:03;8.87;;;3.00;;
14060;SDS011;7105;43.616;1.434;2023-05-07T07:53:29;11.57;;;3.77;;
14060;SDS011;7105;43.616;1.434;2023-05-07T07:55:55;13.50;;;3.90;;
14060;SDS011;7105;43.616;1.434;2023-05-07T07:58:21;9.98;;;3.15;;
14060;SDS011;7105;43.616;1.434;2023-05-07T08:00:47;9.63;;;3.90;;
14060;SDS011;7105;43.616;1.434;2023-05-07T08:03:13;9.40;;;3.13;;
14060;SDS011;7105;43.616;1.434;2023-05-07T08:05:41;10.82;;;3.08;;
14060;SDS011;7105;43.616;1.434;2023-05-07T08:08:07;14.05;;;3.75;;
14060;SDS011;7105;43.616;1.434;2023-05-07T08:10:35;11.18;;;3.40;;
14060;SDS011;7105;43.616;1.434;2023-05-07T08:13:03;8.98;;;3.03;;
14060;SDS011;7105;43.616;1.434;2023-05-07T08:15:29;6.40;;;3.28;;
14060;SDS011;7105;43.616;1.434;2023-05-07T08:17:55;9.75;;;3.50;;
14060;SDS011;7105;43.616;1.434;2023-05-07T08:20:22;8.50;;;3.03;;
14060;SDS011;7105;43.616;1.434;2023-05-07T08:22:48;8.25;;;2.90;;
14060;SDS011;7105;43.616;1.434;2023-05-07T08:25:14;8.77;;;3.30;;
14060;SDS011;7105;43.616;1.434;2023-05-07T08:27:39;9.85;;;3.40;;
14060;SDS011;7105;43.616;1.434;2023-05-07T08:30:05;10.02;;;3.40;;
14060;SDS011;7105;43.616;1.434;2023-05-07T08:32:31;8.32;;;3.05;;
14060;SDS011;7105;43.616;1.434;2023-05-07T08:34:57;13.30;;;4.00;;
14060;SDS011;7105;43.616;1.434;2023-05-07T08:37:23;9.13;;;3.40;;
14060;SDS011;7105;43.616;1.434;2023-05-07T08:39:48;9.25;;;3.20;;
14060;SDS011;7105;43.616;1.434;2023-05-07T08:42:15;12.15;;;3.65;;
14060;SDS011;7105;43.616;1.434;2023-05-07T08:44:42;9.93;;;3.40;;
14060;SDS011;7105;43.616;1.434;2023-05-07T08:47:12;10.05;;;3.25;;
14060;SDS011;7105;43.616;1.434;2023-05-07T08:49:37;8.38;;;3.10;;
14060;SDS011;7105;43.616;1.434;2023-05-07T08:52:03;6.93;;;3.00;;
14060;SDS011;7105;43.616;1.434;2023-05-07T08:54:29;9.70;;;2.80;;
14060;SDS011;7105;43.616;1.434;2023-05-07T08:56:56;7.93;;;3.10;;
14060;SDS011;7105;43.616;1.434;2023-05-07T08:59:22;11.23;;;3.10;;
14060;SDS011;7105;43.616;1.434;2023-05-07T09:01:47;11.70;;;3.25;;
14060;SDS011;7105;43.616;1.434;2023-05-07T09:04:13;13.80;;;3.95;;
14060;SDS011;7105;43.616;1.434;2023-05-07T09:06:39;12.27;;;3.78;;
14060;SDS011;7105;43.616;1.434;2023-05-07T09:09:07;9.82;;;3.35;;
14060;SDS011;7105;43.616;1.434;2023-05-07T09:11:33;11.48;;;3.47;;
14060;SDS011;7105;43.616;1.434;2023-05-07T09:13:58;9.00;;;2.92;;
14060;SDS011;7105;43.616;1.434;2023-05-07T09:16:26;7.95;;;3.38;;
14060;SDS011;7105;43.616;1.434;2023-05-07T09:18:54;7.57;;;3.70;;
14060;SDS011;7105;43.616;1.434;2023-05-07T09:21:22;8.35;;;3.35;;
14060;SDS011;7105;43.616;1.434;2023-05-07T09:23:49;8.52;;;2.65;;
14060;SDS011;7105;43.616;1.434;2023-05-07T09:26:16;8.65;;;3.15;;
14060;SDS011;7105;43.616;1.434;2023-05-07T09:28:42;12.85;;;3.20;;
14060;SDS011;7105;43.616;1.434;2023-05-07T09:31:09;8.85;;;2.95;;
14060;SDS011;7105;43.616;1.434;2023-05-07T09:33:35;9.18;;;3.13;;
14060;SDS011;7105;43.616;1.434;2023-05-07T09:36:02;9.38;;;2.85;;
14060;SDS011;7105;43.616;1.434;2023-05-07T09:38:32;10.95;;;3.17;;
14060;SDS011;7105;43.616;1.434;2023-05-07T09:41:08;9.10;;;3.33;;
14060;SDS011;7105;43.616;1.434;2023-05-07T09:43:38;8.40;;;3.20;;
14060;SDS011;7105;43.616;1.434;2023-05-07T09:46:11;7.65;;;3.17;;
14060;SDS011;7105;43.616;1.434;2023-05-07T09:48:38;9.50;;;3.03;;
14060;SDS011;7105;43.616;1.434;2023-05-07T09:51:21;8.45;;;3.20;;
14060;SDS011;7105;43.616;1.434;2023-05-07T09:53:52;8.13;;;3.25;;
14060;SDS011;7105;43.616;1.434;2023-05-07T09:56:18;9.88;;;3.50;;
14060;SDS011;7105;43.616;1.434;2023-05-07T09:58:45;7.65;;;3.75;;
14060;SDS011;7105;43.616;1.434;2023-05-07T10:01:11;8.98;;;4.03;;
14060;SDS011;7105;43.616;1.434;2023-05-07T10:03:39;16.23;;;4.20;;
14060;SDS011;7105;43.616;1.434;2023-05-07T10:06:08;8.10;;;3.50;;
14060;SDS011;7105;43.616;1.434;2023-05-07T10:08:34;10.55;;;3.50;;
14060;SDS011;7105;43.616;1.434;2023-05-07T10:11:02;9.90;;;3.60;;
14060;SDS011;7105;43.616;1.434;2023-05-07T10:13:29;7.03;;;3.28;;
14060;SDS011;7105;43.616;1.434;2023-05-07T10:15:56;10.73;;;3.53;;
14060;SDS011;7105;43.616;1.434;2023-05-07T10:18:22;6.95;;;3.58;;
14060;SDS011;7105;43.616;1.434;2023-05-07T10:20:54;9.95;;;3.45;;
14060;SDS011;7105;43.616;1.434;2023-05-07T10:23:27;9.60;;;3.45;;
14060;SDS011;7105;43.616;1.434;2023-05-07T10:25:54;8.57;;;3.35;;
14060;SDS011;7105;43.616;1.434;2023-05-07T10:28:22;10.85;;;3.60;;
14060;SDS011;7105;43.616;1.434;2023-05-07T10:33:28;10.20;;;3.90;;
14060;SDS011;7105;43.616;1.434;2023-05-07T10:35:57;11.13;;;3.15;;
14060;SDS011;7105;43.616;1.434;2023-05-07T10:38:25;10.07;;;3.15;;
14060;SDS011;7105;43.616;1.434;2023-05-07T10:40:52;10.90;;;3.50;;
14060;SDS011;7105;43.616;1.434;2023-05-07T10:43:18;8.35;;;3.72;;
14060;SDS011;7105;43.616;1.434;2023-05-07T10:45:44;9.18;;;3.40;;
14060;SDS011;7105;43.616;1.434;2023-05-07T10:49:19;10.20;;;3.00;;
14060;SDS011;7105;43.616;1.434;2023-05-07T10:51:38;9.00;;;3.05;;
14060;SDS011;7105;43.616;1.434;2023-05-07T10:56:37;9.70;;;3.72;;
14060;SDS011;7105;43.616;1.434;2023-05-07T11:01:58;8.95;;;3.10;;
14060;SDS011;7105;43.616;1.434;2023-05-07T11:04:29;8.13;;;3.22;;
14060;SDS011;7105;43.616;1.434;2023-05-07T11:15:11;9.35;;;3.45;;
14060;SDS011;7105;43.616;1.434;2023-05-07T11:17:53;10.88;;;4.90;;
14060;SDS011;7105;43.616;1.434;2023-05-07T11:20:20;7.78;;;3.10;;
14060;SDS011;7105;43.616;1.434;2023-05-07T11:25:59;9.82;;;3.08;;
14060;SDS011;7105;43.616;1.434;2023-05-07T11:28:29;7.88;;;3.15;;
14060;SDS011;7105;43.616;1.434;2023-05-07T11:30:56;10.32;;;3.78;;
14060;SDS011;7105;43.616;1.434;2023-05-07T11:33:22;9.63;;;3.38;;
14060;SDS011;7105;43.616;1.434;2023-05-07T11:35:50;11.10;;;3.30;;
14060;SDS011;7105;43.616;1.434;2023-05-07T11:38:18;8.98;;;3.10;;
14060;SDS011;7105;43.616;1.434;2023-05-07T11:40:50;7.47;;;2.55;;
14060;SDS011;7105;43.616;1.434;2023-05-07T11:43:24;8.75;;;3.00;;
14060;SDS011;7105;43.616;1.434;2023-05-07T11:45:49;8.60;;;2.80;;
14060;SDS011;7105;43.616;1.434;2023-05-07T11:48:16;8.35;;;2.78;;
14060;SDS011;7105;43.616;1.434;2023-05-07T11:50:51;10.70;;;3.38;;
14060;SDS011;7105;43.616;1.434;2023-05-07T11:53:26;8.90;;;2.70;;
14060;SDS011;7105;43.616;1.434;2023-05-07T11:55:53;9.85;;;3.08;;
14060;SDS011;7105;43.616;1.434;2023-05-07T11:58:21;8.57;;;3.00;;
14060;SDS011;7105;43.616;1.434;2023-05-07T12:00:48;11.82;;;3.55;;
14060;SDS011;7105;43.616;1.434;2023-05-07T12:03:18;7.80;;;2.63;;
14060;SDS011;7105;43.616;1.434;2023-05-07T12:05:45;5.93;;;2.60;;
14060;SDS011;7105;43.616;1.434;2023-05-07T12:08:17;8.93;;;2.80;;
14060;SDS011;7105;43.616;1.434;2023-05-07T12:10:44;10.35;;;2.60;;
14060;SDS011;7105;43.616;1.434;2023-05-07T12:13:19;7.47;;;2.92;;
14060;SDS011;7105;43.616;1.434;2023-05-07T12:15:50;7.75;;;2.58;;
14060;SDS011;7105;43.616;1.434;2023-05-07T12:18:19;8.63;;;2.78;;
14060;SDS011;7105;43.616;1.434;2023-05-07T12:20:45;6.72;;;2.30;;
14060;SDS011;7105;43.616;1.434;2023-05-07T12:23:12;7.45;;;2.40;;
14060;SDS011;7105;43.616;1.434;2023-05-07T12:25:38;7.57;;;2.55;;
14060;SDS011;7105;43.616;1.434;2023-05-07T12:28:05;6.05;;;2.10;;
14060;SDS011;7105;43.616;1.434;2023-05-07T12:30:36;6.65;;;2.67;;
14060;SDS011;7105;43.616;1.434;2023-05-07T12:33:03;9.15;;;2.58;;
14060;SDS011;7105;43.616;1.434;2023-05-07T12:35:32;5.30;;;2.38;;
14060;SDS011;7105;43.616;1.434;2023-05-07T12:38:07;6.78;;;2.60;;
14060;SDS011;7105;43.616;1.434;2023-05-07T12:40:46;7.25;;;2.22;;
14060;SDS011;7105;43.616;1.434;2023-05-07T12:43:16;7.88;;;2.70;;
14060;SDS011;7105;43.616;1.434;2023-05-07T12:45:43;9.13;;;3.30;;
14060;SDS011;7105;43.616;1.434;2023-05-07T12:48:10;5.72;;;2.47;;
14060;SDS011;7105;43.616;1.434;2023-05-07T12:50:36;9.63;;;2.95;;
14060;SDS011;7105;43.616;1.434;2023-05-07T12:53:05;10.13;;;3.40;;
14060;SDS011;7105;43.616;1.434;2023-05-07T12:55:34;5.32;;;2.30;;
14060;SDS011;7105;43.616;1.434;2023-05-07T13:00:47;6.68;;;2.80;;
14060;SDS011;7105;43.616;1.434;2023-05-07T13:03:21;8.23;;;2.25;;
14060;SDS011;7105;43.616;1.434;2023-05-07T13:05:52;6.47;;;2.47;;
14060;SDS011;7105;43.616;1.434;2023-05-07T13:08:26;6.55;;;2.30;;
14060;SDS011;7105;43.616;1.434;2023-05-07T13:10:57;9.38;;;2.53;;
14060;SDS011;7105;43.616;1.434;2023-05-07T13:13:28;5.38;;;2.10;;
14060;SDS011;7105;43.616;1.434;2023-05-07T13:15:58;3.83;;;2.00;;
14060;SDS011;7105;43.616;1.434;2023-05-07T13:18:25;5.13;;;2.20;;
14060;SDS011;7105;43.616;1.434;2023-05-07T13:20:51;7.70;;;2.10;;
14060;SDS011;7105;43.616;1.434;2023-05-07T13:23:18;7.35;;;2.30;;
14060;SDS011;7105;43.616;1.434;2023-05-07T13:25:43;7.10;;;2.38;;
14060;SDS011;7105;43.616;1.434;2023-05-07T13:28:09;5.82;;;2.13;;
14060;SDS011;7105;43.616;1.434;2023-05-07T13:30:35;6.88;;;2.17;;
14060;SDS011;7105;43.616;1.434;2023-05-07T13:33:01;4.75;;;2.05;;
14060;SDS011;7105;43.616;1.434;2023-05-07T13:35:27;6.10;;;2.13;;
14060;SDS011;7105;43.616;1.434;2023-05-07T13:37:53;6.25;;;2.58;;
14060;SDS011;7105;43.616;1.434;2023-05-07T13:40:20;5.35;;;1.85;;
14060;SDS011;7105;43.616;1.434;2023-05-07T13:42:46;6.10;;;2.10;;
14060;SDS011;7105;43.616;1.434;2023-05-07T13:45:12;7.95;;;2.30;;
14060;SDS011;7105;43.616;1.434;2023-05-07T13:47:40;7.10;;;2.42;;
14060;SDS011;7105;43.616;1.434;2023-05-07T13:50:09;5.60;;;2.10;;
14060;SDS011;7105;43.616;1.434;2023-05-07T13:52:42;7.03;;;2.60;;
14060;SDS011;7105;43.616;1.434;2023-05-07T13:55:11;6.65;;;2.20;;
14060;SDS011;7105;43.616;1.434;2023-05-07T13:57:37;5.97;;;2.33;;
14060;SDS011;7105;43.616;1.434;2023-05-07T14:00:03;5.03;;;2.35;;
14060;SDS011;7105;43.616;1.434;2023-05-07T14:02:30;5.75;;;2.30;;
14060;SDS011;7105;43.616;1.434;2023-05-07T14:04:56;7.18;;;2.63;;
14060;SDS011;7105;43.616;1.434;2023-05-07T14:07:22;5.53;;;2.53;;
14060;SDS011;7105;43.616;1.434;2023-05-07T14:09:47;7.10;;;2.60;;
14060;SDS011;7105;43.616;1.434;2023-05-07T14:12:13;7.80;;;3.22;;
14060;SDS011;7105;43.616;1.434;2023-05-07T14:14:39;5.88;;;2.30;;
14060;SDS011;7105;43.616;1.434;2023-05-07T14:17:05;7.55;;;2.05;;
14060;SDS011;7105;43.616;1.434;2023-05-07T14:19:30;5.90;;;2.17;;
14060;SDS011;7105;43.616;1.434;2023-05-07T14:21:56;8.45;;;2.22;;
14060;SDS011;7105;43.616;1.434;2023-05-07T14:24:22;5.40;;;2.05;;
14060;SDS011;7105;43.616;1.434;2023-05-07T14:26:48;6.78;;;2.35;;
14060;SDS011;7105;43.616;1.434;2023-05-07T14:29:14;5.10;;;2.00;;
14060;SDS011;7105;43.616;1.434;2023-05-07T14:31:43;5.63;;;2.30;;
14060;SDS011;7105;43.616;1.434;2023-05-07T14:34:09;7.45;;;2.22;;
14060;SDS011;7105;43.616;1.434;2023-05-07T14:36:38;5.30;;;2.00;;
14060;SDS011;7105;43.616;1.434;2023-05-07T14:39:04;4.90;;;2.00;;
14060;SDS011;7105;43.616;1.434;2023-05-07T14:41:30;7.13;;;1.95;;
14060;SDS011;7105;43.616;1.434;2023-05-07T14:43:56;7.15;;;1.92;;
14060;SDS011;7105;43.616;1.434;2023-05-07T14:46:23;4.40;;;1.88;;
14060;SDS011;7105;43.616;1.434;2023-05-07T14:48:49;6.75;;;2.35;;
14060;SDS011;7105;43.616;1.434;2023-05-07T14:51:15;6.45;;;2.95;;
14060;SDS011;7105;43.616;1.434;2023-05-07T14:53:41;4.97;;;2.40;;
14060;SDS011;7105;43.616;1.434;2023-05-07T14:56:07;5.45;;;2.03;;
14060;SDS011;7105;43.616;1.434;2023-05-07T14:58:33;6.38;;;2.60;;
14060;SDS011;7105;43.616;1.434;2023-05-07T15:00:59;6.05;;;2.70;;
14060;SDS011;7105;43.616;1.434;2023-05-07T15:03:25;6.22;;;2.60;;
14060;SDS011;7105;43.616;1.434;2023-05-07T15:05:51;5.50;;;2.40;;
14060;SDS011;7105;43.616;1.434;2023-05-07T15:08:17;8.38;;;2.88;;
14060;SDS011;7105;43.616;1.434;2023-05-07T15:10:43;6.32;;;2.35;;
14060;SDS011;7105;43.616;1.434;2023-05-07T15:13:09;5.13;;;1.42;;
14060;SDS011;7105;43.616;1.434;2023-05-07T15:15:36;3.60;;;1.65;;
14060;SDS011;7105;43.616;1.434;2023-05-07T15:18:02;5.38;;;2.00;;